Time;durP1;ratioP1;P1;durP2;ratioP2;P2;SDS_P1;SDS_P2;PMS_P1;PMS_P2;Temp;Humidity;BMP_temperature;BMP_pressure;BME280_temperature;BME280_humidity;BME280_pressure;Samples;Min_cycle;Max_cycle;Signal;HPM_P1;HPM_P2
2022/01/11 00:01:42;;;;;;;179.00;30.42;;;-0.20;99.90;;;;;;5089970;28;20048;-66
2022/01/11 00:04:09;;;;;;;121.47;26.23;;;-0.20;99.90;;;;;;5109360;28;20125;-66
2022/01/11 00:06:41;;;;;;;230.80;32.40;;;-0.30;99.90;;;;;;5090884;28;20500;-65
2022/01/11 00:09:18;;;;;;;189.00;29.35;;;-0.30;99.90;;;;;;5091719;28;20337;-65
2022/01/11 00:11:44;;;;;;;176.82;27.52;;;-0.30;99.90;;;;;;5090892;28;20457;-66
2022/01/11 00:14:10;;;;;;;157.75;26.23;;;-0.30;99.90;;;;;;5090383;28;20171;-64
2022/01/11 00:16:36;;;;;;;238.05;33.95;;;-0.30;99.90;;;;;;5089698;28;20147;-65
2022/01/11 00:19:05;;;;;;;185.02;29.15;;;-0.20;99.90;;;;;;5090434;28;20059;-66
2022/01/11 00:21:32;;;;;;;204.82;31.70;;;-0.30;99.90;;;;;;5110421;28;20039;-65
2022/01/11 00:26:41;;;;;;;89.32;21.50;;;-0.20;99.90;;;;;;5098308;28;20052;-65
2022/01/11 00:29:06;;;;;;;124.95;25.92;;;-0.30;99.90;;;;;;5094728;28;20044;-66
2022/01/11 00:31:32;;;;;;;143.63;30.63;;;-0.20;99.90;;;;;;5110898;28;20445;-66
2022/01/11 00:34:00;;;;;;;138.57;28.42;;;-0.20;99.90;;;;;;5097384;28;20048;-66
2022/01/11 00:36:39;;;;;;;135.65;26.13;;;-0.20;99.90;;;;;;5102334;28;20053;-66
2022/01/11 00:39:05;;;;;;;217.02;32.75;;;-0.30;99.90;;;;;;5115535;28;20051;-65
2022/01/11 00:41:31;;;;;;;162.35;30.55;;;-0.30;99.90;;;;;;5115620;28;20444;-65
2022/01/11 00:43:57;;;;;;;153.88;26.35;;;-0.20;99.90;;;;;;5116345;28;20056;-65
2022/01/11 00:46:22;;;;;;;99.57;23.88;;;-0.20;99.90;;;;;;5098500;28;20357;-65
2022/01/11 00:48:48;;;;;;;123.80;26.52;;;-0.30;99.90;;;;;;5095469;28;20051;-67
2022/01/11 00:51:13;;;;;;;172.45;29.10;;;-0.20;99.90;;;;;;5094325;28;20060;-66
2022/01/11 00:53:41;;;;;;;155.38;26.35;;;-0.30;99.90;;;;;;5109063;28;20066;-65
2022/01/11 00:56:07;;;;;;;185.75;31.52;;;-0.30;99.90;;;;;;5104680;28;20048;-65
2022/01/11 00:58:33;;;;;;;159.20;28.95;;;-0.30;99.90;;;;;;5103343;28;20048;-66
2022/01/11 01:00:59;;;;;;;143.65;28.90;;;-0.30;99.90;;;;;;5111760;28;20094;-65
2022/01/11 01:03:25;;;;;;;174.63;28.85;;;-0.30;99.90;;;;;;5094934;28;20122;-66
2022/01/11 01:05:52;;;;;;;171.18;29.73;;;-0.30;99.90;;;;;;5098480;28;20059;-65
2022/01/11 01:08:18;;;;;;;150.65;28.58;;;-0.30;99.90;;;;;;5116034;28;20125;-65
2022/01/11 01:10:47;;;;;;;125.32;26.83;;;-0.30;99.90;;;;;;5113766;28;20483;-66
2022/01/11 01:13:17;;;;;;;172.15;32.92;;;-0.30;99.90;;;;;;5115550;28;20496;-66
2022/01/11 01:15:46;;;;;;;175.77;29.52;;;-0.30;99.90;;;;;;5105122;28;20081;-65
2022/01/11 01:18:15;;;;;;;143.40;29.02;;;-0.30;99.90;;;;;;5106966;28;20158;-65
2022/01/11 01:20:42;;;;;;;156.95;29.85;;;-0.30;99.90;;;;;;5097788;28;20392;-66
2022/01/11 01:23:08;;;;;;;251.27;37.28;;;-0.30;99.90;;;;;;5130499;27;20074;-65
2022/01/11 01:25:34;;;;;;;259.65;36.10;;;-0.30;99.90;;;;;;5114164;28;20119;-67
2022/01/11 01:27:59;;;;;;;192.73;33.28;;;-0.30;99.90;;;;;;5114465;28;20159;-67
2022/01/11 01:30:25;;;;;;;96.32;25.15;;;-0.30;99.90;;;;;;5096640;28;20171;-66
2022/01/11 01:32:52;;;;;;;218.52;34.60;;;-0.30;99.90;;;;;;5104901;28;20119;-65
2022/01/11 01:35:21;;;;;;;193.10;32.92;;;-0.20;99.90;;;;;;5109080;28;20193;-65
2022/01/11 01:37:47;;;;;;;176.15;31.50;;;-0.30;99.90;;;;;;5093050;28;20040;-65
2022/01/11 01:40:16;;;;;;;144.00;29.85;;;-0.30;99.90;;;;;;5094779;28;20059;-66
2022/01/11 01:42:42;;;;;;;198.90;32.83;;;-0.20;99.90;;;;;;5093504;28;20059;-67
2022/01/11 01:45:08;;;;;;;253.48;37.03;;;-0.20;99.90;;;;;;5094490;28;20055;-65
2022/01/11 01:47:34;;;;;;;137.35;26.90;;;-0.20;99.90;;;;;;5097039;28;20044;-66
2022/01/11 01:50:00;;;;;;;146.18;27.38;;;-0.20;99.90;;;;;;5088761;28;20476;-65
2022/01/11 01:52:26;;;;;;;194.52;32.17;;;-0.20;99.90;;;;;;5096884;28;20446;-65
2022/01/11 01:54:52;;;;;;;113.10;26.50;;;-0.10;99.90;;;;;;5101323;28;20058;-66
2022/01/11 01:57:18;;;;;;;160.52;32.60;;;-0.20;99.90;;;;;;5101113;28;20131;-66
2022/01/11 01:59:44;;;;;;;174.77;30.90;;;-0.10;99.90;;;;;;5102617;28;20491;-66
2022/01/11 02:02:11;;;;;;;143.88;28.77;;;-0.20;99.90;;;;;;5098996;28;20052;-65
2022/01/11 02:04:37;;;;;;;198.55;31.58;;;-0.10;99.90;;;;;;5094473;28;20081;-66
2022/01/11 02:07:04;;;;;;;301.10;38.80;;;-0.10;99.90;;;;;;5098880;28;20047;-66
2022/01/11 02:09:30;;;;;;;186.98;31.45;;;-0.10;99.90;;;;;;5113476;28;20294;-65
2022/01/11 02:11:55;;;;;;;256.48;36.10;;;-0.10;99.90;;;;;;5110166;28;20068;-66
2022/01/11 02:14:21;;;;;;;172.95;30.25;;;-0.10;99.90;;;;;;5093377;28;20516;-65
2022/01/11 02:16:47;;;;;;;156.38;28.50;;;-0.10;99.90;;;;;;5091813;28;20444;-66
2022/01/11 02:19:13;;;;;;;145.38;28.98;;;-0.10;99.90;;;;;;5093701;28;20404;-66
2022/01/11 02:21:38;;;;;;;119.55;27.95;;;-0.10;99.90;;;;;;5109540;28;20167;-66
2022/01/11 02:24:04;;;;;;;232.07;36.95;;;-0.10;99.90;;;;;;5092625;28;20052;-66
2022/01/11 02:26:31;;;;;;;148.73;28.40;;;-0.10;99.90;;;;;;5094912;28;20051;-65
2022/01/11 02:28:56;;;;;;;117.32;27.42;;;0.00;99.90;;;;;;5108632;28;20083;-65
2022/01/11 02:31:22;;;;;;;159.30;30.77;;;0.00;99.90;;;;;;5093435;28;20094;-65
2022/01/11 02:33:51;;;;;;;124.43;27.80;;;0.00;99.90;;;;;;5092329;28;20056;-65
2022/01/11 02:36:25;;;;;;;112.85;27.48;;;0.00;99.90;;;;;;5093458;28;20043;-66
2022/01/11 02:38:54;;;;;;;88.32;24.48;;;0.00;99.90;;;;;;5094066;28;20105;-65
2022/01/11 02:41:21;;;;;;;173.50;29.20;;;-0.10;99.90;;;;;;5092330;28;20056;-66
2022/01/11 02:43:48;;;;;;;171.02;30.80;;;-0.10;99.90;;;;;;5091622;28;20507;-65
2022/01/11 02:46:22;;;;;;;190.27;31.15;;;-0.10;99.90;;;;;;5091616;28;20068;-66
2022/01/11 02:48:48;;;;;;;135.02;27.52;;;-0.10;99.90;;;;;;5092338;28;20056;-66
2022/01/11 02:51:17;;;;;;;156.13;26.85;;;-0.10;99.90;;;;;;5109156;28;20070;-65
2022/01/11 02:53:45;;;;;;;139.52;28.80;;;-0.10;99.90;;;;;;5097467;28;20125;-66
2022/01/11 02:56:11;;;;;;;119.18;27.48;;;-0.10;99.90;;;;;;5098711;28;20061;-65
2022/01/11 02:58:37;;;;;;;116.22;25.35;;;-0.10;99.90;;;;;;5113149;28;20130;-66
2022/01/11 03:01:04;;;;;;;128.57;26.05;;;-0.10;99.90;;;;;;5099657;28;20132;-66
2022/01/11 03:03:30;;;;;;;155.57;28.00;;;-0.10;99.90;;;;;;5108374;28;20048;-65
2022/01/11 03:05:57;;;;;;;115.90;26.23;;;-0.10;99.90;;;;;;5112029;28;20120;-66
2022/01/11 03:08:25;;;;;;;136.60;26.08;;;-0.10;99.90;;;;;;5113295;28;20046;-66
2022/01/11 03:10:52;;;;;;;92.88;23.88;;;-0.20;99.90;;;;;;5095118;28;20052;-65
2022/01/11 03:13:19;;;;;;;129.02;28.98;;;-0.20;99.90;;;;;;5091880;28;20446;-65
2022/01/11 03:15:46;;;;;;;149.45;29.40;;;-0.20;99.90;;;;;;5119714;27;20488;-66
2022/01/11 03:18:13;;;;;;;115.85;27.48;;;-0.20;99.90;;;;;;5071477;28;20047;-65
2022/01/11 03:20:40;;;;;;;99.90;25.42;;;-0.10;99.90;;;;;;5092807;28;20059;-66
2022/01/11 03:23:06;;;;;;;90.75;26.20;;;-0.20;99.90;;;;;;5091756;28;20052;-65
2022/01/11 03:25:33;;;;;;;130.13;28.30;;;-0.20;99.90;;;;;;5074424;28;20044;-66
2022/01/11 03:27:59;;;;;;;103.25;26.88;;;-0.20;99.90;;;;;;5075529;28;20044;-65
2022/01/11 03:30:24;;;;;;;104.05;26.60;;;-0.20;99.90;;;;;;5091060;28;20457;-66
2022/01/11 03:32:50;;;;;;;123.93;28.38;;;-0.20;99.90;;;;;;5092141;28;20395;-66
2022/01/11 03:35:16;;;;;;;98.05;25.05;;;-0.20;99.90;;;;;;5091612;28;20052;-65
2022/01/11 03:37:43;;;;;;;112.28;29.02;;;-0.20;99.90;;;;;;5091236;28;20453;-66
2022/01/11 03:40:13;;;;;;;106.25;26.20;;;-0.20;99.90;;;;;;5091513;28;20415;-65
2022/01/11 03:42:38;;;;;;;108.70;27.40;;;-0.20;99.90;;;;;;5099177;28;20090;-65
2022/01/11 03:45:06;;;;;;;101.05;27.48;;;-0.20;99.90;;;;;;5097057;28;20040;-65
2022/01/11 03:47:31;;;;;;;103.25;26.35;;;-0.20;99.90;;;;;;5092498;28;20074;-65
2022/01/11 03:49:57;;;;;;;108.32;27.05;;;-0.20;99.90;;;;;;5091824;28;20492;-66
2022/01/11 03:52:23;;;;;;;73.32;23.65;;;-0.20;99.90;;;;;;5098162;28;20070;-65
2022/01/11 03:55:06;;;;;;;77.18;25.75;;;-0.20;99.90;;;;;;5113930;28;20052;-66
2022/01/11 03:57:33;;;;;;;111.95;29.10;;;-0.20;99.90;;;;;;5115713;28;20449;-66
2022/01/11 04:00:01;;;;;;;85.95;27.13;;;-0.20;99.90;;;;;;5109745;28;20131;-66
2022/01/11 04:02:27;;;;;;;99.57;28.80;;;-0.20;99.90;;;;;;5105738;28;20099;-66
2022/01/11 04:04:53;;;;;;;80.43;25.67;;;-0.20;99.90;;;;;;5078240;28;20508;-66
2022/01/11 04:07:26;;;;;;;120.32;30.30;;;-0.20;99.90;;;;;;5095362;28;20115;-66
2022/01/11 04:09:54;;;;;;;103.57;29.55;;;-0.20;99.90;;;;;;5095307;28;20047;-66
2022/01/11 04:12:20;;;;;;;83.65;29.00;;;-0.20;99.90;;;;;;5099246;28;20055;-66
2022/01/11 04:14:46;;;;;;;93.15;27.42;;;-0.20;99.90;;;;;;5109284;28;20487;-65
2022/01/11 04:17:12;;;;;;;103.30;29.35;;;-0.20;99.90;;;;;;5094391;28;20052;-65
2022/01/11 04:19:38;;;;;;;76.40;27.10;;;-0.20;99.90;;;;;;5105562;28;20044;-66
2022/01/11 04:22:04;;;;;;;71.57;24.77;;;-0.20;99.90;;;;;;5113436;28;20487;-65
2022/01/11 04:24:30;;;;;;;94.95;29.25;;;-0.10;99.90;;;;;;5094940;28;20469;-66
2022/01/11 04:26:55;;;;;;;93.35;27.88;;;-0.10;99.90;;;;;;5129202;27;20048;-65
2022/01/11 04:29:21;;;;;;;82.22;28.85;;;-0.10;99.90;;;;;;5095475;28;20381;-65
2022/01/11 04:31:47;;;;;;;113.80;29.83;;;0.10;99.90;;;;;;5094450;28;20055;-65
2022/01/11 04:34:12;;;;;;;108.43;32.00;;;-0.10;99.90;;;;;;5114492;28;20131;-65
2022/01/11 04:36:38;;;;;;;99.72;30.98;;;-0.10;99.90;;;;;;5114335;28;20052;-66
2022/01/11 04:39:07;;;;;;;96.53;30.20;;;-0.10;99.90;;;;;;5115044;28;20051;-64
2022/01/11 04:41:33;;;;;;;90.25;29.33;;;-0.10;99.90;;;;;;5115998;28;20066;-64
2022/01/11 04:43:59;;;;;;;131.00;33.35;;;-0.10;99.90;;;;;;5097855;28;20048;-66
2022/01/11 04:46:26;;;;;;;125.32;31.98;;;0.00;99.90;;;;;;5109868;28;20078;-65
2022/01/11 04:48:52;;;;;;;107.55;32.13;;;0.00;99.90;;;;;;5114750;28;20066;-65
2022/01/11 04:51:19;;;;;;;104.65;30.08;;;0.00;99.90;;;;;;5098879;28;20040;-66
2022/01/11 04:53:48;;;;;;;135.65;34.72;;;-0.10;99.90;;;;;;5110888;28;20089;-65
2022/01/11 04:56:15;;;;;;;105.05;32.47;;;0.00;99.90;;;;;;5113800;28;20059;-66
2022/01/11 04:58:41;;;;;;;123.50;33.17;;;0.00;99.90;;;;;;5112855;28;20149;-66
2022/01/11 05:01:06;;;;;;;114.55;32.30;;;0.00;99.90;;;;;;5094725;28;20123;-67
2022/01/11 05:03:32;;;;;;;99.63;30.48;;;0.00;99.90;;;;;;5107714;28;20047;-65
2022/01/11 05:05:58;;;;;;;88.75;29.60;;;0.00;99.90;;;;;;5096654;28;20051;-66
2022/01/11 05:08:24;;;;;;;87.20;29.23;;;0.00;99.90;;;;;;5115671;28;20538;-65
2022/01/11 05:10:50;;;;;;;123.80;32.03;;;0.00;99.90;;;;;;5097514;28;20090;-66
2022/01/11 05:13:18;;;;;;;108.35;30.92;;;0.00;99.90;;;;;;5101649;28;20158;-66
2022/01/11 05:15:44;;;;;;;105.00;31.23;;;0.10;99.90;;;;;;5092703;28;20051;-65
2022/01/11 05:18:10;;;;;;;110.95;30.27;;;0.00;99.90;;;;;;5094801;28;20044;-65
2022/01/11 05:20:37;;;;;;;113.82;31.85;;;0.10;99.90;;;;;;5107846;28;20108;-66
2022/01/11 05:23:04;;;;;;;106.30;32.33;;;0.00;99.90;;;;;;5104062;28;20056;-65
2022/01/11 05:25:31;;;;;;;115.57;32.35;;;0.00;99.90;;;;;;5126998;27;20047;-66
2022/01/11 05:27:59;;;;;;;92.57;31.95;;;0.10;99.90;;;;;;5093664;28;20400;-66
2022/01/11 05:30:25;;;;;;;126.95;32.22;;;0.10;99.90;;;;;;5093294;28;20059;-65
2022/01/11 05:32:51;;;;;;;143.45;34.67;;;0.10;99.90;;;;;;5094162;28;20468;-66
2022/01/11 05:35:18;;;;;;;113.60;33.22;;;0.10;99.90;;;;;;5094971;28;20052;-66
2022/01/11 05:37:44;;;;;;;83.20;29.80;;;0.10;99.90;;;;;;5128482;27;20404;-65
2022/01/11 05:40:11;;;;;;;104.57;29.75;;;0.10;99.90;;;;;;5110216;28;20058;-65
2022/01/11 05:42:37;;;;;;;104.82;32.08;;;0.10;99.90;;;;;;5100606;28;20372;-65
2022/01/11 05:45:04;;;;;;;91.50;30.55;;;0.10;99.90;;;;;;5113244;28;20054;-66
2022/01/11 05:47:29;;;;;;;84.65;29.83;;;0.10;99.90;;;;;;5099635;28;20513;-65
2022/01/11 05:49:55;;;;;;;83.75;30.10;;;0.10;99.90;;;;;;5101435;28;20114;-65
2022/01/11 05:52:21;;;;;;;68.35;26.77;;;0.10;99.90;;;;;;5093714;28;20135;-65
2022/01/11 05:54:46;;;;;;;78.20;28.95;;;0.10;99.90;;;;;;5097291;28;20039;-65
2022/01/11 05:57:12;;;;;;;79.95;29.70;;;0.10;99.90;;;;;;5092751;28;20052;-65
2022/01/11 05:59:37;;;;;;;80.47;31.33;;;0.10;99.90;;;;;;5093043;28;20117;-65
2022/01/11 06:02:03;;;;;;;93.10;31.60;;;0.10;99.90;;;;;;5101382;28;20098;-67
2022/01/11 06:04:29;;;;;;;96.25;32.13;;;0.10;99.90;;;;;;5109839;28;20048;-66
2022/01/11 06:06:55;;;;;;;74.68;29.75;;;0.10;99.90;;;;;;5110347;28;20131;-66
2022/01/11 06:09:26;;;;;;;77.00;29.70;;;0.10;99.90;;;;;;5094535;28;20080;-66
2022/01/11 06:11:53;;;;;;;79.65;30.08;;;0.10;99.90;;;;;;5114207;28;20062;-66
2022/01/11 06:14:18;;;;;;;85.10;32.47;;;0.00;99.90;;;;;;5111439;28;20421;-66
2022/01/11 06:16:44;;;;;;;80.50;30.58;;;0.10;99.90;;;;;;5110131;28;20115;-65
2022/01/11 06:19:09;;;;;;;70.18;28.42;;;0.00;99.90;;;;;;5111181;28;20139;-66
2022/01/11 06:21:35;;;;;;;84.00;31.45;;;0.00;99.90;;;;;;5101794;28;20055;-65
2022/01/11 06:24:01;;;;;;;78.38;28.90;;;0.10;99.90;;;;;;5095093;28;20499;-65
2022/01/11 06:26:28;;;;;;;75.93;30.48;;;0.00;99.90;;;;;;5104251;28;20132;-65
2022/01/11 06:28:54;;;;;;;72.18;28.17;;;0.00;99.90;;;;;;5092408;28;20131;-66
2022/01/11 06:31:20;;;;;;;72.57;29.15;;;0.00;99.90;;;;;;5091892;28;20048;-66
2022/01/11 06:33:46;;;;;;;76.10;29.50;;;0.00;99.90;;;;;;5065283;28;20049;-66
2022/01/11 06:36:11;;;;;;;63.95;25.80;;;0.00;99.90;;;;;;5085781;28;20083;-67
2022/01/11 06:38:39;;;;;;;69.78;28.63;;;0.00;99.90;;;;;;5083339;28;20052;-65
2022/01/11 06:41:09;;;;;;;65.57;26.05;;;0.00;99.90;;;;;;5091988;28;20071;-66
2022/01/11 06:43:38;;;;;;;65.45;27.90;;;0.00;99.90;;;;;;5092454;28;20060;-66
2022/01/11 06:46:05;;;;;;;67.60;27.25;;;0.00;99.90;;;;;;5092258;28;20125;-66
2022/01/11 06:48:31;;;;;;;72.28;27.48;;;0.00;99.90;;;;;;5093344;28;20126;-66
2022/01/11 06:50:57;;;;;;;66.80;25.52;;;0.00;99.90;;;;;;5091799;28;20127;-65
2022/01/11 06:53:22;;;;;;;72.78;28.30;;;0.00;99.90;;;;;;5091179;28;20538;-67
2022/01/11 06:55:49;;;;;;;61.40;25.08;;;0.00;99.90;;;;;;5091838;28;20056;-65
2022/01/11 06:58:16;;;;;;;67.75;26.85;;;-0.10;99.90;;;;;;5091747;28;20080;-66
2022/01/11 07:00:43;;;;;;;63.60;26.70;;;-0.10;99.90;;;;;;5101338;28;20047;-66
2022/01/11 07:03:08;;;;;;;58.92;24.52;;;0.00;99.90;;;;;;5112083;28;20487;-66
2022/01/11 07:05:34;;;;;;;61.97;26.83;;;-0.10;99.90;;;;;;5112314;28;20039;-66
2022/01/11 07:07:59;;;;;;;69.72;30.10;;;-0.10;99.90;;;;;;5112406;28;20055;-65
2022/01/11 07:10:25;;;;;;;66.38;30.52;;;-0.10;99.90;;;;;;5112398;28;20063;-67
2022/01/11 07:12:50;;;;;;;66.70;29.00;;;-0.10;99.90;;;;;;5111946;28;20083;-65
2022/01/11 07:15:16;;;;;;;69.88;28.02;;;-0.10;99.90;;;;;;5102998;28;20129;-64
2022/01/11 07:17:42;;;;;;;60.72;26.25;;;-0.10;99.90;;;;;;5090644;28;20047;-66
2022/01/11 07:20:09;;;;;;;72.00;31.40;;;-0.10;99.90;;;;;;5074951;28;20501;-65
2022/01/11 07:22:37;;;;;;;63.95;26.85;;;-0.10;99.90;;;;;;5091059;28;20047;-65
2022/01/11 07:25:04;;;;;;;58.92;26.05;;;-0.20;99.90;;;;;;5092781;28;20559;-66
2022/01/11 07:27:31;;;;;;;60.80;25.60;;;-0.20;99.90;;;;;;5092635;28;20051;-66
2022/01/11 07:29:57;;;;;;;62.55;28.10;;;-0.10;99.90;;;;;;5092631;28;20047;-66
2022/01/11 07:32:23;;;;;;;68.55;33.33;;;-0.20;99.90;;;;;;5089870;28;20077;-66
2022/01/11 07:34:48;;;;;;;61.58;26.80;;;-0.20;99.90;;;;;;5092831;28;20052;-67
2022/01/11 07:37:14;;;;;;;50.30;22.75;;;-0.20;99.90;;;;;;5091078;28;20160;-66
2022/01/11 07:39:41;;;;;;;54.92;22.55;;;-0.10;99.90;;;;;;5091484;28;20157;-67
2022/01/11 07:42:07;;;;;;;57.63;23.10;;;-0.20;99.90;;;;;;5091844;28;20389;-66
2022/01/11 07:44:32;;;;;;;52.63;23.50;;;-0.20;99.90;;;;;;5091041;28;20112;-65
2022/01/11 07:46:58;;;;;;;56.78;22.80;;;-0.10;99.90;;;;;;5098322;28;20052;-66
2022/01/11 07:49:24;;;;;;;51.35;22.45;;;-0.10;99.90;;;;;;5074193;28;20044;-65
2022/01/11 07:51:49;;;;;;;50.53;23.77;;;-0.10;99.90;;;;;;5090732;28;20075;-66
2022/01/11 07:54:16;;;;;;;51.97;23.58;;;-0.10;99.90;;;;;;5087650;28;20458;-66
2022/01/11 07:56:41;;;;;;;54.15;25.02;;;-0.10;99.90;;;;;;5090629;28;20048;-66
2022/01/11 07:59:07;;;;;;;50.95;22.25;;;-0.10;99.90;;;;;;5092117;28;20052;-66
2022/01/11 08:01:32;;;;;;;46.58;22.05;;;-0.10;99.90;;;;;;5092190;28;20059;-64
2022/01/11 08:03:59;;;;;;;48.75;21.95;;;-0.10;99.90;;;;;;5091370;28;20047;-65
2022/01/11 08:06:26;;;;;;;38.40;21.45;;;0.00;99.90;;;;;;5107542;28;20050;-64
2022/01/11 08:08:51;;;;;;;43.25;20.45;;;0.00;99.90;;;;;;5111018;28;20054;-66
2022/01/11 08:11:17;;;;;;;38.58;18.50;;;0.00;99.90;;;;;;5093419;28;20480;-65
2022/01/11 08:13:43;;;;;;;94.45;24.05;;;0.30;99.90;;;;;;5074276;28;20044;-65
2022/01/11 08:16:08;;;;;;;36.78;18.50;;;0.00;99.90;;;;;;5090872;28;20123;-64
2022/01/11 08:18:34;;;;;;;33.40;17.23;;;0.10;99.90;;;;;;5092713;28;20044;-65
2022/01/11 08:21:00;;;;;;;35.67;16.52;;;0.10;99.90;;;;;;5091062;28;20044;-66
2022/01/11 08:23:25;;;;;;;34.53;18.08;;;0.10;99.90;;;;;;5091195;28;20105;-68
2022/01/11 08:25:51;;;;;;;29.38;16.35;;;0.10;99.90;;;;;;5090511;28;20502;-65
2022/01/11 08:28:17;;;;;;;35.25;17.42;;;0.10;99.90;;;;;;5091173;28;20060;-65
2022/01/11 08:30:42;;;;;;;33.13;16.77;;;0.10;99.90;;;;;;5090244;28;20052;-66
2022/01/11 08:33:09;;;;;;;28.80;16.58;;;0.20;99.90;;;;;;5091386;28;20083;-65
2022/01/11 08:35:35;;;;;;;29.80;16.15;;;0.20;99.90;;;;;;5090968;28;20056;-66
2022/01/11 08:38:02;;;;;;;28.10;15.45;;;0.20;99.90;;;;;;5090462;28;20053;-66
2022/01/11 08:40:28;;;;;;;30.42;15.13;;;0.10;99.90;;;;;;5090804;28;20094;-65
2022/01/11 08:42:53;;;;;;;28.23;16.58;;;0.20;99.90;;;;;;5094288;28;20527;-66
2022/01/11 08:45:20;;;;;;;25.55;15.82;;;0.20;99.90;;;;;;5094607;28;20056;-66
2022/01/11 08:47:46;;;;;;;31.02;15.80;;;0.20;99.90;;;;;;5095496;28;20063;-67
2022/01/11 08:50:12;;;;;;;30.40;16.00;;;0.20;99.90;;;;;;5094195;28;20055;-66
2022/01/11 08:52:39;;;;;;;23.60;15.10;;;0.30;99.90;;;;;;5093963;28;20119;-67
2022/01/11 08:55:07;;;;;;;28.15;16.17;;;0.30;99.90;;;;;;5093329;28;20047;-66
2022/01/11 08:57:33;;;;;;;27.50;15.30;;;0.30;99.90;;;;;;5094026;28;20372;-66
2022/01/11 08:59:59;;;;;;;25.70;15.15;;;0.30;99.90;;;;;;5093821;28;20048;-66
2022/01/11 09:02:24;;;;;;;29.40;15.23;;;0.40;99.90;;;;;;5093813;28;20044;-65
2022/01/11 09:04:52;;;;;;;26.80;15.90;;;0.40;99.90;;;;;;5093693;28;20055;-66
2022/01/11 09:07:18;;;;;;;24.17;13.63;;;0.40;99.90;;;;;;5108160;28;20052;-66
2022/01/11 09:09:43;;;;;;;23.98;14.23;;;0.40;99.90;;;;;;5084732;28;20141;-67
2022/01/11 09:12:12;;;;;;;25.83;15.10;;;0.30;99.90;;;;;;5094263;28;20138;-67
2022/01/11 09:14:39;;;;;;;25.65;15.25;;;0.40;99.90;;;;;;5093512;28;20139;-66
2022/01/11 09:17:05;;;;;;;22.05;14.02;;;0.40;99.90;;;;;;5093198;28;20079;-66
2022/01/11 09:19:31;;;;;;;25.80;14.55;;;0.50;99.90;;;;;;5086797;28;20056;-67
2022/01/11 09:21:57;;;;;;;26.35;14.68;;;0.50;99.90;;;;;;5097446;28;20156;-66
2022/01/11 09:24:29;;;;;;;23.67;15.05;;;0.40;99.90;;;;;;5095079;28;20052;-67
2022/01/11 09:27:03;;;;;;;27.07;14.37;;;0.50;99.90;;;;;;5093883;28;20052;-66
2022/01/11 09:29:28;;;;;;;23.38;14.32;;;0.60;99.90;;;;;;5094051;28;20468;-66
2022/01/11 09:31:56;;;;;;;25.23;14.45;;;0.50;99.90;;;;;;5092565;28;20040;-68
2022/01/11 09:34:22;;;;;;;25.50;14.82;;;0.80;99.90;;;;;;5093483;28;20554;-66
2022/01/11 09:36:48;;;;;;;24.80;14.07;;;0.70;99.90;;;;;;5097113;28;20059;-67
2022/01/11 09:39:14;;;;;;;24.00;14.90;;;0.80;99.90;;;;;;5088709;28;20052;-67
2022/01/11 09:41:40;;;;;;;26.15;14.10;;;0.80;99.90;;;;;;5092738;28;20062;-66
2022/01/11 09:44:07;;;;;;;24.58;14.35;;;0.80;99.90;;;;;;5093474;28;20083;-68
2022/01/11 09:46:33;;;;;;;23.75;14.82;;;0.80;99.90;;;;;;5092567;28;20500;-66
2022/01/11 09:48:59;;;;;;;24.48;13.57;;;0.90;99.90;;;;;;5098344;28;20044;-66
2022/01/11 09:51:24;;;;;;;27.30;14.88;;;0.90;99.90;;;;;;5094547;28;20039;-67
2022/01/11 09:53:51;;;;;;;23.00;13.52;;;0.90;99.90;;;;;;5113679;28;20093;-66
2022/01/11 09:56:17;;;;;;;28.77;17.73;;;0.90;99.90;;;;;;5112858;28;20407;-65
2022/01/11 09:58:45;;;;;;;33.70;19.27;;;0.90;99.90;;;;;;5113529;28;20067;-67
2022/01/11 10:01:11;;;;;;;29.30;15.98;;;1.00;99.90;;;;;;5110814;28;20221;-66
2022/01/11 10:04:10;;;;;;;24.33;14.00;;;0.90;99.90;;;;;;5076252;28;20139;-67
2022/01/11 10:06:39;;;;;;;23.30;14.30;;;1.00;99.90;;;;;;5093232;28;20467;-66
2022/01/11 10:09:16;;;;;;;24.05;15.30;;;1.00;99.90;;;;;;5099449;28;20047;-65
2022/01/11 10:11:44;;;;;;;24.35;14.75;;;1.00;99.90;;;;;;5106512;28;20076;-67
2022/01/11 10:14:17;;;;;;;26.05;15.55;;;1.00;99.90;;;;;;5094303;28;20130;-65
2022/01/11 10:16:43;;;;;;;25.70;14.35;;;1.10;99.90;;;;;;5092688;28;20154;-67
2022/01/11 10:19:23;;;;;;;27.00;16.33;;;1.10;99.90;;;;;;5092462;28;20127;-66
2022/01/11 10:21:50;;;;;;;23.67;14.93;;;1.10;99.90;;;;;;5072149;28;20080;-67
2022/01/11 10:24:27;;;;;;;25.05;15.00;;;1.10;99.90;;;;;;5089512;28;20111;-67
2022/01/11 10:26:56;;;;;;;27.80;15.65;;;1.10;99.90;;;;;;5114254;28;20044;-66
2022/01/11 10:29:32;;;;;;;23.80;14.52;;;1.10;99.90;;;;;;5113089;28;20488;-66
2022/01/11 10:32:01;;;;;;;27.52;15.93;;;1.10;99.90;;;;;;5112852;28;20032;-66
2022/01/11 10:34:33;;;;;;;25.27;14.80;;;1.10;99.90;;;;;;5111393;28;20484;-68
2022/01/11 10:37:01;;;;;;;25.30;15.18;;;1.20;99.90;;;;;;5112570;28;20051;-67
2022/01/11 10:39:40;;;;;;;25.85;15.63;;;1.30;99.90;;;;;;5111271;28;20036;-67
2022/01/11 10:42:27;;;;;;;21.00;13.65;;;1.30;99.90;;;;;;5112463;28;20475;-67
2022/01/11 10:44:54;;;;;;;24.23;14.50;;;1.40;99.90;;;;;;5113739;28;20047;-67
2022/01/11 10:47:26;;;;;;;20.80;13.23;;;1.50;99.90;;;;;;5113588;28;20094;-66
2022/01/11 10:49:55;;;;;;;24.88;13.90;;;1.50;99.90;;;;;;5111694;28;20039;-66
2022/01/11 10:52:26;;;;;;;22.60;14.48;;;1.60;99.90;;;;;;5113204;28;20047;-67
2022/01/11 10:54:53;;;;;;;25.55;14.52;;;1.60;99.90;;;;;;5092290;28;20081;-67
2022/01/11 10:57:28;;;;;;;24.13;14.32;;;1.60;99.90;;;;;;5092145;28;20095;-67
2022/01/11 11:00:10;;;;;;;25.42;14.45;;;1.60;99.90;;;;;;5091864;28;20141;-67
2022/01/11 11:02:35;;;;;;;24.90;14.90;;;1.70;99.90;;;;;;5074609;28;20400;-66
2022/01/11 11:05:14;;;;;;;22.77;13.95;;;1.80;99.90;;;;;;5105730;28;20290;-66
2022/01/11 11:07:40;;;;;;;24.92;13.70;;;1.90;99.90;;;;;;5113165;28;20044;-67
2022/01/11 11:10:06;;;;;;;23.17;15.02;;;2.00;99.90;;;;;;5112126;28;20097;-67
2022/01/11 11:12:32;;;;;;;25.58;14.52;;;2.20;99.90;;;;;;5111966;28;20043;-68
2022/01/11 11:14:59;;;;;;;21.67;14.50;;;2.30;99.90;;;;;;5105500;28;20082;-65
2022/01/11 11:17:34;;;;;;;23.23;13.55;;;2.40;99.90;;;;;;5092085;28;20044;-67
2022/01/11 11:20:07;;;;;;;23.63;14.27;;;2.40;99.90;;;;;;5123435;27;20044;-67
2022/01/11 11:22:33;;;;;;;21.13;13.60;;;2.50;99.90;;;;;;5091326;28;20052;-68
2022/01/11 11:24:59;;;;;;;22.55;15.57;;;2.60;99.90;;;;;;5091577;28;20044;-67
2022/01/11 11:27:25;;;;;;;22.80;13.85;;;2.60;99.90;;;;;;5091495;28;20048;-67
2022/01/11 11:29:51;;;;;;;21.63;13.32;;;2.60;99.90;;;;;;5082462;28;20063;-68
2022/01/11 11:32:19;;;;;;;22.77;13.73;;;2.70;99.90;;;;;;5070653;28;20060;-66
2022/01/11 11:34:54;;;;;;;24.95;13.93;;;2.70;99.90;;;;;;5085243;28;20044;-67
2022/01/11 11:37:28;;;;;;;21.42;12.55;;;3.00;99.90;;;;;;5088486;28;20127;-67
2022/01/11 11:40:01;;;;;;;22.58;13.00;;;2.80;99.90;;;;;;5093755;28;20183;-66
2022/01/11 11:42:28;;;;;;;21.52;12.93;;;2.90;99.90;;;;;;5090474;28;20407;-67
2022/01/11 11:44:56;;;;;;;21.90;13.55;;;2.90;99.90;;;;;;5091715;28;20148;-67
2022/01/11 11:47:34;;;;;;;20.73;12.93;;;2.90;99.90;;;;;;5108268;28;20053;-68
2022/01/11 11:50:04;;;;;;;24.38;14.07;;;3.00;99.90;;;;;;5072780;28;20174;-67
2022/01/11 11:52:42;;;;;;;26.10;13.88;;;3.00;99.90;;;;;;5070987;28;20124;-67
2022/01/11 11:55:15;;;;;;;26.40;13.98;;;3.10;99.90;;;;;;5090523;28;20043;-67
2022/01/11 11:57:41;;;;;;;25.85;14.63;;;3.10;99.90;;;;;;5086607;28;20075;-68
2022/01/11 12:00:30;;;;;;;27.25;15.73;;;3.20;99.90;;;;;;5091183;28;20129;-67
2022/01/11 12:03:00;;;;;;;24.52;14.50;;;3.30;99.90;;;;;;5104767;28;20068;-66
2022/01/11 12:05:38;;;;;;;22.20;13.35;;;3.40;99.90;;;;;;5088953;28;20048;-68
2022/01/11 12:08:27;;;;;;;21.80;12.95;;;3.50;99.90;;;;;;5092417;28;20052;-67
2022/01/11 12:10:55;;;;;;;23.67;14.40;;;3.60;99.90;;;;;;5091999;28;20064;-67
2022/01/11 12:13:44;;;;;;;22.73;13.68;;;3.70;99.90;;;;;;5091314;28;20052;-67
2022/01/11 12:16:25;;;;;;;25.38;15.45;;;3.90;99.90;;;;;;5093717;28;20414;-67
2022/01/11 12:18:51;;;;;;;23.20;12.70;;;4.10;99.90;;;;;;5095249;28;20056;-66
2022/01/11 12:21:17;;;;;;;21.95;13.73;;;4.20;99.90;;;;;;5095210;28;20048;-67
2022/01/11 12:23:47;;;;;;;25.95;15.27;;;4.30;99.90;;;;;;5094884;28;20052;-67
2022/01/11 12:26:20;;;;;;;24.23;13.02;;;4.40;99.90;;;;;;5111675;28;20487;-66
2022/01/11 12:29:08;;;;;;;;;;;4.50;99.90;;;;;;5095205;28;20044;-68
2022/01/11 12:31:39;;;;;;;21.85;12.35;;;4.60;99.90;;;;;;5094892;28;19982;-66
2022/01/11 12:34:09;;;;;;;20.83;12.50;;;4.80;99.90;;;;;;5094660;28;20123;-67